Time;durP1;ratioP1;P1;durP2;ratioP2;P2;SDS_P1;SDS_P2;PMS_P1;PMS_P2;Temp;Humidity;BMP_temperature;BMP_pressure;BME280_temperature;BME280_humidity;BME280_pressure;Samples;Min_cycle;Max_cycle;Signal;HPM_P1;HPM_P2
2022/01/10 00:02:41;;;;;;;;;8.00;8.00;;;;;3.93;93.67;100584.22;6183841;23;11444;-77
2022/01/10 00:05:36;;;;;;;;;13.50;12.00;;;;;4.09;92.97;100588.44;6183689;23;12141;-76
2022/01/10 00:08:33;;;;;;;;;12.00;12.00;;;;;4.03;92.79;100589.59;6183478;23;11492;-76
2022/01/10 00:11:30;;;;;;;;;10.25;10.25;;;;;3.99;93.24;100594.84;6184175;23;12213;-77
2022/01/10 00:14:26;;;;;;;;;11.50;11.50;;;;;4.05;93.24;100593.66;6183737;23;11474;-77
2022/01/10 00:17:21;;;;;;;;;17.00;17.00;;;;;4.06;92.92;100602.69;6164215;23;12286;-76
2022/01/10 00:20:19;;;;;;;;;9.25;9.25;;;;;4.11;92.64;100600.72;6183616;23;11557;-77
2022/01/10 00:23:14;;;;;;;;;16.00;11.00;;;;;4.17;92.50;100596.81;6192679;23;11575;-76
2022/01/10 00:26:10;;;;;;;;;16.00;14.75;;;;;4.10;92.57;100588.13;6184759;23;11556;-77
2022/01/10 00:29:05;;;;;;;;;18.25;16.50;;;;;4.03;92.67;100579.44;6184630;23;11618;-77
2022/01/10 00:32:01;;;;;;;;;9.50;9.50;;;;;4.25;92.11;100586.34;6184736;23;11541;-76
2022/01/10 00:34:57;;;;;;;;;10.00;10.00;;;;;4.12;92.55;100585.09;6184484;23;11527;-76
2022/01/10 00:37:52;;;;;;;;;13.50;13.50;;;;;4.07;93.23;100585.19;6182410;23;11516;-76
2022/01/10 00:40:50;;;;;;;;;16.50;16.50;;;;;4.06;93.07;100581.59;6184566;23;11540;-77
2022/01/10 00:43:47;;;;;;;;;13.00;9.25;;;;;3.88;94.27;100582.34;6201309;23;11552;-77
2022/01/10 00:46:42;;;;;;;;;10.50;10.50;;;;;3.89;94.36;100581.22;6184550;23;11589;-77
2022/01/10 00:49:38;;;;;;;;;11.50;11.50;;;;;3.93;94.43;100585.03;6184225;23;11527;-77
2022/01/10 00:52:34;;;;;;;;;8.00;8.00;;;;;3.94;94.45;100575.72;6184877;23;11499;-76
2022/01/10 00:55:31;;;;;;;;;12.50;12.50;;;;;3.96;94.12;100573.50;6184680;23;11506;-77
2022/01/10 00:58:26;;;;;;;;;6.25;5.75;;;;;4.06;93.79;100572.56;6185767;23;11552;-77
2022/01/10 01:01:22;;;;;;;;;8.00;8.00;;;;;3.97;94.13;100571.59;6202915;23;11490;-77
2022/01/10 01:04:17;;;;;;;;;12.00;10.00;;;;;3.93;94.71;100567.81;6184119;23;11503;-77
2022/01/10 01:07:13;;;;;;;;;8.00;8.00;;;;;3.80;95.25;100564.63;6186442;23;11611;-77
2022/01/10 01:16:56;;;;;;;;;12.25;12.25;;;;;3.91;95.70;100565.38;6186247;23;11540;-77
2022/01/10 01:26:09;;;;;;;;;12.50;12.50;;;;;3.85;96.31;100572.00;6185294;23;11469;-76
2022/01/10 01:29:07;;;;;;;;;14.50;12.25;;;;;3.84;96.53;100576.66;6184796;23;11489;-76
2022/01/10 01:32:03;;;;;;;;;8.75;8.75;;;;;3.81;96.88;100576.41;6185087;23;11448;-77
2022/01/10 01:35:06;;;;;;;;;13.50;8.50;;;;;3.88;96.88;100574.94;6184745;23;11451;-77
2022/01/10 01:38:02;;;;;;;;;11.00;11.00;;;;;3.87;96.93;100572.50;6185418;23;11541;-77
2022/01/10 01:41:12;;;;;;;;;14.00;14.00;;;;;3.69;97.52;100576.78;6184341;23;11446;-77
2022/01/10 01:44:08;;;;;;;;;13.50;12.00;;;;;3.77;97.59;100583.56;6184597;23;11477;-77
2022/01/10 01:47:04;;;;;;;;;17.50;16.25;;;;;3.81;98.05;100588.16;6184587;23;11473;-76
2022/01/10 01:50:00;;;;;;;;;13.25;11.25;;;;;3.82;97.88;100581.56;6184682;23;11478;-77
2022/01/10 01:52:56;;;;;;;;;10.25;10.25;;;;;3.70;98.67;100588.53;6165313;23;11474;-77
2022/01/10 01:55:51;;;;;;;;;14.00;14.00;;;;;3.73;99.12;100582.50;6166233;23;12273;-77
2022/01/10 01:58:47;;;;;;;;;12.75;12.75;;;;;3.70;99.56;100581.16;6184890;23;11496;-77
2022/01/10 02:01:43;;;;;;;;;11.00;11.00;;;;;3.66;99.89;100562.84;6184932;23;11551;-77
2022/01/10 02:04:39;;;;;;;;;9.00;9.00;;;;;3.70;100.00;100564.75;6184859;23;11498;-77
2022/01/10 02:07:34;;;;;;;;;15.75;15.50;;;;;3.63;100.00;100556.88;6164648;23;11451;-77
2022/01/10 02:10:30;;;;;;;;;16.25;14.75;;;;;3.55;100.00;100552.03;6183965;23;12239;-76
2022/01/10 02:13:26;;;;;;;;;14.25;13.00;;;;;3.66;100.00;100555.47;6184701;23;11498;-75
2022/01/10 02:16:32;;;;;;;;;15.00;15.00;;;;;3.54;100.00;100555.06;6184705;23;11488;-75
2022/01/10 02:19:28;;;;;;;;;20.75;20.75;;;;;3.55;100.00;100559.41;6184354;23;11678;-75
2022/01/10 02:22:24;;;;;;;;;15.50;15.50;;;;;3.54;100.00;100566.00;6184271;23;11542;-75
2022/01/10 02:25:19;;;;;;;;;17.75;17.75;;;;;3.60;100.00;100554.72;6184419;23;11535;-75
2022/01/10 02:28:15;;;;;;;;;16.25;15.75;;;;;3.44;100.00;100563.31;6184492;23;12220;-75
2022/01/10 02:31:11;;;;;;;;;12.75;12.75;;;;;3.55;100.00;100560.22;6183809;23;11495;-76
2022/01/10 02:34:07;;;;;;;;;18.25;17.25;;;;;3.52;100.00;100563.53;6185609;23;11474;-76
2022/01/10 02:37:03;;;;;;;;;27.50;25.25;;;;;3.45;100.00;100556.75;6164574;23;12217;-76
2022/01/10 02:40:02;;;;;;;;;25.75;25.00;;;;;3.49;100.00;100550.44;6184220;23;11516;-75
2022/01/10 02:42:58;;;;;;;;;30.00;24.50;;;;;3.40;100.00;100546.69;6184298;23;11610;-75
2022/01/10 02:45:56;;;;;;;;;26.00;23.75;;;;;3.44;100.00;100539.53;6185331;23;11519;-75
2022/01/10 02:48:52;;;;;;;;;24.25;24.25;;;;;3.40;100.00;100554.06;6184241;23;11621;-75
2022/01/10 02:51:48;;;;;;;;;29.00;28.00;;;;;3.40;100.00;100556.81;6183799;23;11532;-75
2022/01/10 02:54:43;;;;;;;;;17.75;17.75;;;;;3.42;100.00;100560.88;6184224;23;11571;-76
2022/01/10 02:57:40;;;;;;;;;21.25;21.25;;;;;3.48;100.00;100557.00;6184213;23;11499;-75
2022/01/10 03:00:36;;;;;;;;;21.50;21.50;;;;;3.49;100.00;100550.44;6183488;23;11494;-75
2022/01/10 03:03:32;;;;;;;;;22.75;22.25;;;;;3.50;100.00;100543.03;6182948;23;11492;-76
2022/01/10 03:06:28;;;;;;;;;16.00;16.00;;;;;3.47;100.00;100547.19;6184129;23;11591;-76
2022/01/10 03:09:23;;;;;;;;;15.75;15.75;;;;;3.51;100.00;100555.59;6184087;23;12259;-76
2022/01/10 03:12:20;;;;;;;;;19.50;19.50;;;;;3.42;100.00;100560.06;6183585;23;11492;-76
2022/01/10 03:15:17;;;;;;;;;15.75;15.75;;;;;3.50;100.00;100557.53;6184015;23;11496;-76
2022/01/10 03:18:13;;;;;;;;;16.50;15.25;;;;;3.47;100.00;100560.84;6184083;23;11601;-76
2022/01/10 03:21:09;;;;;;;;;17.50;17.50;;;;;3.42;100.00;100558.16;6183446;23;11500;-76
2022/01/10 03:24:05;;;;;;;;;19.00;17.50;;;;;3.48;100.00;100553.47;6183703;23;11470;-76
2022/01/10 03:27:01;;;;;;;;;16.75;16.00;;;;;3.43;100.00;100557.03;6184176;23;11524;-76
2022/01/10 03:29:56;;;;;;;;;18.00;18.00;;;;;3.51;100.00;100559.16;6183664;23;11596;-76
2022/01/10 03:32:52;;;;;;;;;20.50;19.25;;;;;3.53;100.00;100562.44;6184081;23;11519;-76
2022/01/10 03:35:49;;;;;;;;;21.75;20.00;;;;;3.56;100.00;100564.59;6182956;23;11653;-76
2022/01/10 03:38:45;;;;;;;;;17.00;17.00;;;;;3.57;100.00;100565.41;6183860;23;11520;-74
2022/01/10 03:41:41;;;;;;;;;34.00;29.25;;;;;3.62;100.00;100571.66;6183285;23;11502;-76
2022/01/10 03:44:37;;;;;;;;;38.25;35.50;;;;;3.60;100.00;100562.09;6183563;23;11514;-76
2022/01/10 03:47:33;;;;;;;;;59.25;48.25;;;;;3.52;100.00;100562.72;6182646;23;11624;-77
2022/01/10 03:50:29;;;;;;;;;59.50;47.75;;;;;3.59;100.00;100568.66;6182672;23;11533;-77
2022/01/10 03:53:24;;;;;;;;;66.67;53.00;;;;;3.46;100.00;100564.69;6183599;23;11607;-77
2022/01/10 03:56:22;;;;;;;;;73.67;53.67;;;;;3.54;100.00;100568.72;6183761;23;11635;-77
2022/01/10 03:59:18;;;;;;;;;68.75;53.50;;;;;3.43;100.00;100564.44;6183697;23;12301;-76
2022/01/10 04:02:13;;;;;;;;;61.25;50.25;;;;;3.41;100.00;100574.84;6163454;23;11576;-76
2022/01/10 04:05:09;;;;;;;;;62.50;50.50;;;;;3.50;100.00;100579.41;6182593;23;11678;-76
2022/01/10 04:08:05;;;;;;;;;73.33;59.33;;;;;3.46;100.00;100581.09;6183419;23;11563;-77
2022/01/10 04:11:01;;;;;;;;;75.00;60.00;;;;;3.45;100.00;100586.81;6183877;23;11522;-75
2022/01/10 04:13:57;;;;;;;;;56.67;49.33;;;;;3.45;100.00;100581.34;6183413;23;8798;-76
2022/01/10 04:16:52;;;;;;;;;69.00;52.00;;;;;3.48;100.00;100573.41;6183666;23;11523;-76
2022/01/10 04:19:48;;;;;;;;;78.67;60.00;;;;;3.46;100.00;100581.09;6163958;23;8830;-76
2022/01/10 04:22:43;;;;;;;;;79.67;63.33;;;;;3.54;100.00;100587.88;6183312;23;8818;-76
2022/01/10 04:25:40;;;;;;;;;88.00;68.00;;;;;3.54;100.00;100585.13;6183276;23;8805;-76
2022/01/10 04:28:36;;;;;;;;;311.50;247.25;;;;;3.48;100.00;100594.47;6183276;23;8805;-76
2022/01/10 04:31:31;;;;;;;;;98.00;73.67;;;;;3.52;99.92;100590.03;6183533;23;8797;-77
2022/01/10 04:34:27;;;;;;;;;97.67;78.00;;;;;3.50;99.95;100595.81;6185432;23;8826;-77
2022/01/10 04:37:23;;;;;;;;;119.50;103.75;;;;;3.57;99.74;100595.47;6165820;23;8786;-76
2022/01/10 04:40:18;;;;;;;;;102.00;78.33;;;;;3.61;99.21;100605.56;6185224;23;8798;-77
2022/01/10 04:43:14;;;;;;;;;176.00;146.50;;;;;3.57;99.07;100600.97;6185138;23;8794;-77
2022/01/10 04:46:10;;;;;;;;;94.67;75.67;;;;;3.52;99.48;100601.81;6166960;23;8888;-79
2022/01/10 04:49:11;;;;;;;;;72.67;57.67;;;;;3.54;99.21;100596.88;6185367;23;9506;-78
2022/01/10 04:52:06;;;;;;;;;90.00;71.67;;;;;3.57;99.12;100601.78;6185697;23;8884;-76
2022/01/10 04:55:04;;;;;;;;;53.25;46.00;;;;;3.56;99.05;100600.13;6185515;23;9578;-77
2022/01/10 04:57:33;;;;;;;;;39.00;38.67;;;;;3.53;99.10;100603.47;6169476;23;11637;-77
2022/01/10 05:00:29;;;;;;;;;45.75;41.75;;;;;3.52;99.10;100607.28;6184458;23;11517;-77
2022/01/10 05:03:24;;;;;;;;;38.75;38.75;;;;;3.59;99.09;100612.41;6184816;23;11588;-76
2022/01/10 05:06:20;;;;;;;;;38.50;38.50;;;;;3.56;98.72;100613.00;6184957;23;11532;-77
2022/01/10 05:09:15;;;;;;;;;60.33;49.33;;;;;3.49;98.84;100629.72;6185284;23;11524;-77
2022/01/10 05:12:12;;;;;;;;;56.33;46.00;;;;;3.55;98.86;100623.13;6185138;23;11535;-77
2022/01/10 05:15:07;;;;;;;;;52.00;47.00;;;;;3.49;99.11;100634.38;6185105;23;11552;-77
2022/01/10 05:18:03;;;;;;;;;57.67;48.00;;;;;3.47;99.00;100642.88;6182839;23;11546;-76
2022/01/10 05:20:59;;;;;;;;;33.75;31.25;;;;;3.53;99.36;100649.94;6184749;23;11597;-77
2022/01/10 05:23:54;;;;;;;;;59.75;48.50;;;;;3.51;99.52;100643.09;6183639;23;11555;-76
2022/01/10 05:26:50;;;;;;;;;38.67;33.67;;;;;3.54;99.15;100650.75;6184653;23;11564;-76
2022/01/10 05:29:45;;;;;;;;;45.50;40.00;;;;;3.52;98.99;100645.56;6184093;23;11545;-75
2022/01/10 05:32:41;;;;;;;;;35.50;34.25;;;;;3.79;100.00;100653.28;6184093;23;11505;-76
2022/01/10 05:35:39;;;;;;;;;54.00;48.25;;;;;3.81;100.00;100658.47;6184671;23;11518;-76
2022/01/10 05:38:34;;;;;;;;;41.75;40.50;;;;;3.82;100.00;100662.81;6183214;23;11549;-76
2022/01/10 05:41:31;;;;;;;;;44.75;41.75;;;;;4.01;100.00;100665.69;6185280;23;11638;-74
2022/01/10 05:44:28;;;;;;;;;62.00;49.75;;;;;4.42;100.00;100671.56;6184210;23;11539;-73
2022/01/10 05:47:26;;;;;;;;;64.33;53.00;;;;;4.41;100.00;100668.00;6184361;23;11552;-74
2022/01/10 05:50:33;;;;;;;;;65.75;52.50;;;;;4.31;100.00;100672.78;6184232;23;11529;-74
2022/01/10 05:53:28;;;;;;;;;63.67;48.67;;;;;4.63;100.00;100681.19;6185372;23;11543;-74
2022/01/10 05:56:24;;;;;;;;;76.00;62.33;;;;;4.64;99.84;100696.53;6185607;23;11527;-73
2022/01/10 05:59:20;;;;;;;;;74.25;54.00;;;;;4.93;100.00;100696.47;6184632;23;8933;-74
2022/01/10 06:02:16;;;;;;;;;66.67;57.00;;;;;4.63;96.15;100711.34;6166025;23;11649;-73
2022/01/10 06:05:11;;;;;;;;;68.50;53.00;;;;;4.83;96.24;100701.22;6184274;23;11583;-74
2022/01/10 06:08:08;;;;;;;;;63.50;52.00;;;;;4.92;95.61;100703.06;6183314;23;11543;-74
2022/01/10 06:11:04;;;;;;;;;68.00;56.67;;;;;4.96;95.13;100714.25;6183688;23;11564;-74
2022/01/10 06:13:59;;;;;;;;;59.75;51.75;;;;;4.96;94.60;100716.97;6183933;23;11533;-73
2022/01/10 06:16:55;;;;;;;;;61.75;49.50;;;;;4.78;92.68;100725.97;6182678;23;11530;-71
2022/01/10 06:19:22;;;;;;;;;63.00;50.00;;;;;4.63;92.69;100726.94;6185702;23;11532;-72
2022/01/10 06:22:18;;;;;;;;;75.25;51.25;;;;;4.51;92.93;100719.13;6183924;23;11515;-71
2022/01/10 06:25:18;;;;;;;;;70.50;58.25;;;;;4.35;93.48;100718.47;6183973;23;11528;-73
2022/01/10 06:28:14;;;;;;;;;65.25;56.00;;;;;4.20;94.23;100732.28;6183994;23;11666;-68
2022/01/10 06:31:10;;;;;;;;;67.75;54.50;;;;;4.17;94.64;100739.16;6183696;23;11529;-68
2022/01/10 06:34:06;;;;;;;;;63.25;53.25;;;;;4.11;94.81;100729.34;6184040;23;11521;-67
2022/01/10 06:37:03;;;;;;;;;77.00;60.50;;;;;4.06;95.20;100731.31;6183130;23;11514;-72
2022/01/10 06:39:59;;;;;;;;;66.75;54.00;;;;;4.07;95.48;100732.97;6183112;23;11531;-73
2022/01/10 06:42:54;;;;;;;;;56.25;45.50;;;;;3.98;95.39;100748.34;6181746;23;11562;-72
2022/01/10 06:45:50;;;;;;;;;81.00;65.00;;;;;3.93;95.87;100754.69;6183428;23;11545;-73
2022/01/10 06:48:45;;;;;;;;;61.00;51.25;;;;;3.86;96.67;100754.19;6184240;23;8778;-73
2022/01/10 06:51:41;;;;;;;;;84.67;64.67;;;;;3.85;96.18;100747.09;6183511;23;11690;-73
2022/01/10 06:54:36;;;;;;;;;76.00;60.00;;;;;3.81;96.52;100748.75;6182585;23;8786;-73
2022/01/10 06:57:32;;;;;;;;;87.67;67.00;;;;;3.81;96.67;100748.75;6183740;23;8789;-73
2022/01/10 07:00:28;;;;;;;;;86.33;66.67;;;;;3.82;96.87;100758.59;6183217;23;8789;-71
2022/01/10 07:03:23;;;;;;;;;63.25;52.50;;;;;3.93;96.64;100753.88;6183982;23;8801;-72
2022/01/10 07:06:19;;;;;;;;;72.33;59.33;;;;;3.98;96.55;100748.34;6183088;23;11572;-67
2022/01/10 07:08:47;;;;;;;;;24.25;18.75;;;;;4.01;96.40;100753.25;6193466;23;8790;-67
2022/01/10 07:11:43;;;;;;;;;55.50;45.25;;;;;4.01;96.13;100753.25;6183613;23;11647;-68
2022/01/10 07:14:39;;;;;;;;;84.33;65.33;;;;;3.97;96.64;100746.72;6183391;23;11542;-67
2022/01/10 07:17:34;;;;;;;;;67.33;53.33;;;;;3.94;96.57;100748.09;6183411;23;8830;-68
2022/01/10 07:20:32;;;;;;;;;48.00;43.67;;;;;3.95;96.79;100752.47;6183169;23;12212;-68
2022/01/10 07:23:27;;;;;;;;;78.33;64.00;;;;;4.07;96.25;100760.34;6183282;23;11574;-68
2022/01/10 07:26:23;;;;;;;;;104.33;86.33;;;;;4.07;96.51;100766.63;6183550;23;8971;-68
2022/01/10 07:29:19;;;;;;;;;84.33;67.67;;;;;4.10;96.83;100770.69;6183449;23;8824;-68
2022/01/10 07:32:15;;;;;;;;;59.50;46.75;;;;;4.23;96.46;100763.75;6183417;23;8876;-67
2022/01/10 07:35:11;;;;;;;;;55.75;47.50;;;;;4.27;96.18;100768.38;6183656;23;11545;-68
2022/01/10 07:38:06;;;;;;;;;82.67;64.67;;;;;4.17;96.68;100765.72;6163761;23;11556;-69
2022/01/10 07:41:07;;;;;;;;;66.25;52.75;;;;;4.11;96.67;100759.47;6183199;23;8806;-67
2022/01/10 07:44:03;;;;;;;;;64.00;54.00;;;;;4.10;97.02;100757.84;6183365;23;11578;-69
2022/01/10 07:46:59;;;;;;;;;77.33;62.33;;;;;4.23;96.96;100752.81;6182449;23;11533;-69
2022/01/10 07:49:54;;;;;;;;;91.33;69.00;;;;;4.27;96.88;100753.84;6182037;23;11550;-68
2022/01/10 07:52:50;;;;;;;;;57.00;47.25;;;;;4.30;96.46;100750.56;6182923;23;8810;-69
2022/01/10 07:55:45;;;;;;;;;70.50;57.25;;;;;4.34;96.63;100743.41;6183032;23;11496;-68
2022/01/10 07:58:41;;;;;;;;;58.50;47.75;;;;;4.36;96.33;100750.19;6182989;23;12237;-69
2022/01/10 08:01:38;;;;;;;;;47.00;43.25;;;;;4.35;96.02;100755.97;6183158;23;11548;-68
2022/01/10 08:04:33;;;;;;;;;50.00;45.00;;;;;4.19;96.51;100753.38;6183000;23;11672;-68
2022/01/10 08:07:29;;;;;;;;;66.50;52.00;;;;;4.16;97.17;100753.94;6185074;23;11493;-69
2022/01/10 08:10:25;;;;;;;;;56.00;49.25;;;;;4.19;97.13;100756.09;6184567;23;11520;-69
2022/01/10 08:13:20;;;;;;;;;55.75;47.25;;;;;4.16;97.96;100744.94;6185002;23;11618;-68
2022/01/10 08:16:16;;;;;;;;;47.25;42.75;;;;;4.01;98.55;100747.78;6185082;23;12310;-69
2022/01/10 08:19:11;;;;;;;;;61.25;50.25;;;;;4.06;99.24;100745.00;6184236;23;11606;-69
2022/01/10 08:22:07;;;;;;;;;60.00;47.25;;;;;4.10;99.30;100740.59;6184367;23;11520;-69
2022/01/10 08:25:03;;;;;;;;;69.75;54.25;;;;;4.09;99.32;100738.97;6184898;23;11599;-70
2022/01/10 08:27:59;;;;;;;;;60.67;47.33;;;;;4.11;99.43;100737.56;6185919;23;11525;-69
2022/01/10 08:30:55;;;;;;;;;129.25;116.00;;;;;4.13;99.46;100735.34;6184796;23;8785;-69
2022/01/10 08:33:51;;;;;;;;;78.00;60.67;;;;;4.19;99.43;100725.19;6184963;23;9533;-69
2022/01/10 08:36:46;;;;;;;;;74.67;55.00;;;;;4.19;99.37;100722.44;6184716;23;8906;-69
2022/01/10 08:39:42;;;;;;;;;47.00;40.50;;;;;4.37;99.51;100720.91;6184395;23;8812;-69
2022/01/10 08:42:37;;;;;;;;;61.25;52.25;;;;;4.40;98.92;100723.91;6184645;23;11534;-66
2022/01/10 08:45:33;;;;;;;;;63.25;51.75;;;;;4.48;98.27;100738.88;6184229;23;11514;-67
2022/01/10 08:48:29;;;;;;;;;62.50;50.50;;;;;4.45;98.53;100737.53;6184306;23;11513;-67
2022/01/10 08:51:25;;;;;;;;;70.75;56.00;;;;;4.55;98.39;100730.31;6184686;23;11581;-67
2022/01/10 08:54:22;;;;;;;;;91.00;68.00;;;;;4.45;98.38;100723.84;6184463;23;11506;-67
2022/01/10 08:57:18;;;;;;;;;82.00;63.00;;;;;4.43;98.40;100725.22;6184605;23;8794;-67
2022/01/10 09:00:14;;;;;;;;;79.67;59.67;;;;;4.39;99.24;100719.53;6184605;23;11556;-69
2022/01/10 09:02:41;;;;;;;;;71.33;57.33;;;;;4.41;98.92;100722.78;6185629;23;11651;-68
2022/01/10 09:05:37;;;;;;;;;99.67;69.33;;;;;4.41;98.67;100725.53;6184161;23;11665;-68
2022/01/10 09:08:37;;;;;;;;;102.67;83.67;;;;;4.41;98.86;100717.31;6184392;23;8812;-68
2022/01/10 09:11:32;;;;;;;;;103.00;84.00;;;;;4.51;98.71;100721.03;6184494;23;8812;-68
2022/01/10 09:14:28;;;;;;;;;79.00;51.00;;;;;4.52;99.01;100720.75;6184443;23;8785;-69
2022/01/10 09:17:24;;;;;;;;;122.00;102.67;;;;;4.57;99.42;100714.41;6184390;23;8841;-68
2022/01/10 09:20:20;;;;;;;;;124.00;108.33;;;;;4.60;99.01;100719.31;6184511;23;8883;-68
2022/01/10 09:23:16;;;;;;;;;113.33;91.67;;;;;4.69;99.11;100721.13;6184133;23;9515;-68
2022/01/10 09:26:11;;;;;;;;;108.67;92.33;;;;;4.70;99.00;100714.53;6184631;23;8786;-68
2022/01/10 09:29:07;;;;;;;;;114.33;103.67;;;;;4.83;98.79;100713.03;6185625;23;8802;-68
2022/01/10 09:32:03;;;;;;;;;91.67;68.67;;;;;4.95;98.38;100707.13;6184568;23;8793;-67
2022/01/10 09:34:59;;;;;;;;;77.00;64.00;;;;;5.01;98.56;100700.47;6184633;23;8824;-69
2022/01/10 09:37:55;;;;;;;;;66.50;54.00;;;;;4.97;98.48;100710.38;6185067;23;11521;-68
2022/01/10 09:40:51;;;;;;;;;66.00;55.25;;;;;5.02;98.68;100708.41;6183928;23;11527;-69
2022/01/10 09:43:50;;;;;;;;;71.75;58.25;;;;;5.02;98.40;100705.66;6183858;23;11619;-71
2022/01/10 09:46:49;;;;;;;;;63.75;52.00;;;;;5.12;98.55;100703.91;6184272;23;11628;-68
2022/01/10 09:49:44;;;;;;;;;73.25;58.25;;;;;5.12;98.04;100701.97;6183555;23;11687;-68
2022/01/10 09:52:40;;;;;;;;;74.00;58.75;;;;;5.18;97.58;100708.22;6184038;23;11619;-69
2022/01/10 09:55:36;;;;;;;;;77.75;59.50;;;;;5.30;97.33;100697.63;6184219;23;11544;-68
2022/01/10 09:58:32;;;;;;;;;81.33;66.00;;;;;5.32;96.88;100697.34;6183692;23;11549;-69
2022/01/10 10:01:31;;;;;;;;;80.25;63.50;;;;;5.33;97.35;100698.97;6183626;23;8825;-68
2022/01/10 10:04:26;;;;;;;;;76.25;62.25;;;;;5.45;96.44;100704.84;6164391;23;11539;-69
2022/01/10 10:07:25;;;;;;;;;85.67;65.00;;;;;5.39;96.51;100706.03;6184283;23;12187;-69
2022/01/10 10:10:21;;;;;;;;;82.67;66.00;;;;;5.41;96.10;100701.84;6183687;23;11525;-68
2022/01/10 10:13:18;;;;;;;;;111.00;86.67;;;;;5.47;95.77;100697.13;6184026;23;8782;-67
2022/01/10 10:16:16;;;;;;;;;104.67;88.67;;;;;5.38;96.11;100702.47;6184316;23;8829;-68
2022/01/10 10:19:14;;;;;;;;;110.00;88.33;;;;;5.41;95.38;100701.03;6184335;23;8797;-68
2022/01/10 10:22:14;;;;;;;;;117.00;101.00;;;;;5.44;95.70;100703.19;6184217;23;8785;-68
2022/01/10 10:25:11;;;;;;;;;134.67;108.67;;;;;5.34;95.67;100704.16;6184264;23;8801;-67
2022/01/10 10:28:06;;;;;;;;;136.00;109.00;;;;;5.34;95.90;100701.41;6184490;23;8824;-68
2022/01/10 10:31:02;;;;;;;;;143.33;115.67;;;;;5.34;96.81;100695.91;6183768;23;8864;-68
2022/01/10 10:34:01;;;;;;;;;170.00;129.67;;;;;5.41;96.50;100699.13;6184404;23;8794;-67
2022/01/10 10:37:11;;;;;;;;;173.00;147.75;;;;;5.42;96.30;100703.47;6184414;23;8863;-71
2022/01/10 10:40:10;;;;;;;;;194.50;148.75;;;;;5.36;96.54;100699.19;6183730;23;8798;-69
2022/01/10 10:43:07;;;;;;;;;167.33;135.33;;;;;5.49;96.52;100708.59;6184301;23;8836;-71
2022/01/10 10:46:12;;;;;;;;;132.00;109.33;;;;;5.49;96.45;100714.91;6184114;23;8848;-69
2022/01/10 10:49:08;;;;;;;;;129.00;105.00;;;;;5.47;96.37;100705.34;6184068;23;8790;-70
2022/01/10 10:52:07;;;;;;;;;100.67;82.33;;;;;5.64;95.82;100700.16;6184098;23;8812;-69
2022/01/10 10:55:14;;;;;;;;;64.50;54.50;;;;;5.60;95.22;100701.88;6183965;23;8797;-67
2022/01/10 10:58:11;;;;;;;;;68.00;54.25;;;;;5.62;95.35;100696.91;6183927;23;11632;-67
2022/01/10 11:01:07;;;;;;;;;66.25;53.50;;;;;5.72;95.51;100687.69;6183790;23;11644;-67
2022/01/10 11:04:04;;;;;;;;;61.25;50.50;;;;;5.59;95.00;100691.97;6183841;23;11534;-68
2022/01/10 11:06:59;;;;;;;;;53.25;47.00;;;;;5.68;94.80;100697.63;6184025;23;11519;-68
2022/01/10 11:09:56;;;;;;;;;62.75;49.25;;;;;5.70;94.81;100709.94;6183683;23;11589;-70
2022/01/10 11:12:57;;;;;;;;;99.33;76.33;;;;;5.77;95.02;100710.38;6183714;23;11515;-70
2022/01/10 11:15:53;;;;;;;;;80.00;60.75;;;;;5.77;95.08;100712.31;6183633;23;8802;-70
2022/01/10 11:18:49;;;;;;;;;80.25;62.25;;;;;5.79;94.49;100713.63;6183635;23;11547;-71
2022/01/10 11:22:01;;;;;;;;;96.00;76.33;;;;;5.83;94.51;100717.44;6183292;23;12342;-70
2022/01/10 11:24:57;;;;;;;;;105.67;89.00;;;;;5.94;93.75;100725.53;6183349;23;8789;-70
2022/01/10 11:28:09;;;;;;;;;111.33;98.00;;;;;5.91;92.62;100726.13;6183300;23;8825;-70
2022/01/10 11:31:06;;;;;;;;;101.00;83.33;;;;;5.78;93.76;100727.66;6183732;23;8817;-70
2022/01/10 11:34:03;;;;;;;;;91.67;72.33;;;;;5.66;93.82;100730.84;6183759;23;9424;-70
2022/01/10 11:37:02;;;;;;;;;82.33;63.33;;;;;5.59;94.51;100731.22;6183456;23;8797;-67
2022/01/10 11:39:58;;;;;;;;;79.75;61.50;;;;;5.51;94.65;100734.63;6183121;23;12271;-68
2022/01/10 11:42:57;;;;;;;;;58.50;49.50;;;;;5.51;95.67;100733.81;6163636;23;11530;-68
2022/01/10 11:46:07;;;;;;;;;86.00;62.00;;;;;5.44;95.75;100736.91;6183007;23;12228;-68
2022/01/10 11:49:04;;;;;;;;;83.33;67.00;;;;;5.44;96.05;100738.84;6183326;23;11603;-70
2022/01/10 11:52:05;;;;;;;;;83.50;63.75;;;;;5.58;95.97;100745.22;6183249;23;11533;-68
2022/01/10 11:55:07;;;;;;;;;152.50;128.00;;;;;5.61;95.18;100746.59;6182672;23;12219;-68
2022/01/10 11:58:24;;;;;;;;;82.00;63.33;;;;;5.53;95.44;100742.59;6182770;23;8813;-67
2022/01/10 12:01:20;;;;;;;;;88.00;68.00;;;;;5.62;95.86;100746.28;6182977;23;11625;-67
2022/01/10 12:04:16;;;;;;;;;51.25;45.00;;;;;5.61;95.33;100744.66;6182966;23;8801;-69
2022/01/10 12:07:13;;;;;;;;;50.00;42.75;;;;;5.44;96.06;100742.41;6183057;23;12104;-68
2022/01/10 12:10:11;;;;;;;;;27.75;25.25;;;;;5.43;95.86;100751.75;6182716;23;11602;-68
2022/01/10 12:13:12;;;;;;;;;41.75;34.50;;;;;5.43;96.43;100748.19;6183327;23;11517;-68
2022/01/10 12:16:10;;;;;;;;;59.00;46.75;;;;;5.35;96.50;100751.59;6182950;23;11634;-67
2022/01/10 12:19:07;;;;;;;;;49.00;42.00;;;;;5.30;97.07;100747.81;6182024;23;11576;-67
2022/01/10 12:22:07;;;;;;;;;66.00;53.50;;;;;5.26;97.70;100748.69;6183239;23;11534;-69
2022/01/10 12:25:03;;;;;;;;;56.00;46.00;;;;;5.26;97.84;100763.22;6183381;23;11627;-69
2022/01/10 12:28:01;;;;;;;;;67.00;57.00;;;;;5.34;97.50;100769.97;6182957;23;11605;-68
2022/01/10 12:31:02;;;;;;;;;46.75;43.50;;;;;5.17;97.40;100773.19;6163433;23;11546;-67
2022/01/10 12:33:59;;;;;;;;;53.25;47.75;;;;;5.09;97.83;100781.25;6183333;23;11533;-68
2022/01/10 12:36:55;;;;;;;;;46.75;41.75;;;;;5.14;97.47;100784.75;6183271;23;11567;-68
2022/01/10 12:39:51;;;;;;;;;41.75;40.75;;;;;5.02;98.03;100792.56;6183157;23;11549;-68
2022/01/10 12:42:49;;;;;;;;;45.00;42.50;;;;;4.97;97.94;100793.44;6183246;23;11533;-68
2022/01/10 12:45:46;;;;;;;;;50.25;43.25;;;;;5.01;97.56;100797.22;6183050;23;11558;-68
2022/01/10 12:48:46;;;;;;;;;40.00;37.25;;;;;4.95;97.66;100787.44;6183187;23;11546;-68
2022/01/10 12:51:45;;;;;;;;;20.50;20.50;;;;;4.96;97.41;100790.97;6183176;23;11657;-68
2022/01/10 12:54:40;;;;;;;;;49.50;42.25;;;;;4.92;98.06;100800.91;6184340;23;11525;-68
2022/01/10 12:57:36;;;;;;;;;33.75;31.75;;;;;5.05;97.05;100805.69;6184722;23;11619;-70
2022/01/10 13:00:32;;;;;;;;;46.25;41.50;;;;;4.82;98.31;100803.72;6186055;23;11528;-68
2022/01/10 13:03:28;;;;;;;;;26.00;25.00;;;;;4.63;98.81;100812.69;6164984;23;11616;-68
2022/01/10 13:06:29;;;;;;;;;38.50;37.00;;;;;4.62;99.61;100812.97;6184946;23;11524;-69
2022/01/10 13:09:28;;;;;;;;;34.75;33.00;;;;;4.68;99.40;100825.53;6184616;23;11521;-68
2022/01/10 13:15:19;;;;;;;;;42.75;38.50;;;;;4.56;100.00;100819.59;6184811;23;11512;-67
2022/01/10 13:18:17;;;;;;;;;37.75;35.75;;;;;4.65;99.81;100828.84;6184632;23;11656;-68
2022/01/10 13:21:13;;;;;;;;;40.00;37.00;;;;;4.56;99.87;100828.63;6184740;23;11512;-67
2022/01/10 13:24:17;;;;;;;;;33.00;31.50;;;;;4.68;99.45;100834.56;6184757;23;11583;-69
2022/01/10 13:27:17;;;;;;;;;48.50;40.00;;;;;4.40;99.87;100833.44;6185611;23;11551;-67
2022/01/10 13:30:25;;;;;;;;;44.75;38.50;;;;;4.22;100.00;100836.03;6185444;23;11646;-70
2022/01/10 13:33:21;;;;;;;;;32.25;30.50;;;;;4.12;100.00;100829.53;6185768;23;11652;-68
2022/01/10 13:36:17;;;;;;;;;43.50;34.00;;;;;4.01;100.00;100830.69;6185739;23;11639;-67
2022/01/10 13:39:18;;;;;;;;;30.00;27.75;;;;;4.09;100.00;100835.56;6185580;23;11739;-68
2022/01/10 13:42:13;;;;;;;;;33.75;33.75;;;;;3.97;100.00;100843.31;6185190;23;11578;-67
2022/01/10 13:45:10;;;;;;;;;42.00;41.00;;;;;4.07;100.00;100836.97;6183139;23;11571;-68
2022/01/10 13:48:11;;;;;;;;;35.25;34.00;;;;;4.05;100.00;100839.97;6185519;23;11553;-67